Time;durP1;ratioP1;P1;durP2;ratioP2;P2;SDS_P1;SDS_P2;PMS_P1;PMS_P2;Temp;Humidity;BMP_temperature;BMP_pressure;BME280_temperature;BME280_humidity;BME280_pressure;Samples;Min_cycle;Max_cycle;Signal;HPM_P1;HPM_P2
2021/10/18 00:00:14;;;;;;;8.55;6.03;;;16.80;79.80;;;;;;4251037;27;20040;-73
2021/10/18 00:02:22;;;;;;;7.35;5.10;;;16.90;79.90;;;;;;4251754;27;20055;-73
2021/10/18 00:04:27;;;;;;;10.70;5.85;;;16.80;79.80;;;;;;4251789;27;20043;-74
2021/10/18 00:06:30;;;;;;;7.88;5.70;;;16.80;79.90;;;;;;4249321;27;20055;-75
2021/10/18 00:08:33;;;;;;;7.50;5.25;;;16.80;79.80;;;;;;4249771;27;20101;-74
2021/10/18 00:10:41;;;;;;;9.30;5.30;;;16.80;79.90;;;;;;4231611;27;20066;-72
2021/10/18 00:13:04;;;;;;;9.02;5.70;;;16.80;79.90;;;;;;4248983;27;20121;-71
2021/10/18 00:15:14;;;;;;;7.25;5.80;;;16.80;79.90;;;;;;4249485;27;20534;-75
2021/10/18 00:17:17;;;;;;;7.03;5.22;;;16.80;79.90;;;;;;4249597;27;20400;-75
2021/10/18 00:19:20;;;;;;;8.50;5.68;;;16.80;79.90;;;;;;4250125;27;20051;-75
2021/10/18 00:21:24;;;;;;;8.20;5.75;;;16.80;79.90;;;;;;4250131;27;20125;-72
2021/10/18 00:23:27;;;;;;;9.48;5.53;;;16.80;79.90;;;;;;4251619;27;20123;-74
2021/10/18 00:25:30;;;;;;;6.97;5.38;;;16.80;79.90;;;;;;4251807;27;20043;-74
2021/10/18 00:27:38;;;;;;;7.10;5.07;;;16.80;79.90;;;;;;4252952;27;20380;-73
2021/10/18 00:29:41;;;;;;;8.10;6.18;;;16.80;79.90;;;;;;4255331;27;20051;-75
2021/10/18 00:31:44;;;;;;;8.75;5.85;;;16.80;79.90;;;;;;4256759;27;20051;-75
2021/10/18 00:33:52;;;;;;;8.23;6.13;;;16.80;79.90;;;;;;4256243;27;20058;-74
2021/10/18 00:35:55;;;;;;;8.10;5.60;;;16.80;79.90;;;;;;4256825;27;20103;-76
2021/10/18 00:38:04;;;;;;;7.45;5.38;;;16.80;79.90;;;;;;4239331;28;20109;-75
2021/10/18 00:40:13;;;;;;;10.02;5.28;;;16.80;79.90;;;;;;4239964;28;20440;-76
2021/10/18 00:42:16;;;;;;;9.20;6.13;;;16.80;79.90;;;;;;4235618;28;20112;-74
2021/10/18 00:44:19;;;;;;;7.90;5.65;;;16.80;79.90;;;;;;4256343;27;20051;-73
2021/10/18 00:46:27;;;;;;;12.68;5.72;;;16.80;79.90;;;;;;4255040;27;20146;-75
2021/10/18 00:48:30;;;;;;;8.10;5.78;;;16.80;79.90;;;;;;4255791;27;20061;-76
2021/10/18 00:50:33;;;;;;;6.80;5.78;;;16.80;79.90;;;;;;4255852;27;20043;-77
2021/10/18 00:52:41;;;;;;;8.13;5.47;;;16.80;79.90;;;;;;4254426;27;20077;-75
2021/10/18 00:54:48;;;;;;;9.95;6.15;;;16.70;79.90;;;;;;4255106;27;20051;-74
2021/10/18 00:56:51;;;;;;;10.32;5.65;;;16.80;80.00;;;;;;4252499;27;20270;-73
2021/10/18 00:58:58;;;;;;;7.50;5.80;;;16.80;79.90;;;;;;4249196;27;20518;-73
2021/10/18 01:01:02;;;;;;;8.48;5.68;;;16.80;80.00;;;;;;4247273;27;20542;-75
2021/10/18 01:03:09;;;;;;;8.55;5.80;;;16.70;79.90;;;;;;4247910;27;20058;-72
2021/10/18 01:05:18;;;;;;;7.40;5.57;;;16.70;79.90;;;;;;4231327;28;20051;-75
2021/10/18 01:07:21;;;;;;;8.47;5.77;;;16.70;79.90;;;;;;4248339;27;20054;-75
2021/10/18 01:09:30;;;;;;;8.98;5.78;;;16.70;79.80;;;;;;4248285;27;20479;-71
2021/10/18 01:11:35;;;;;;;10.35;5.88;;;16.70;79.90;;;;;;4247760;27;20063;-74
2021/10/18 01:13:43;;;;;;;8.25;6.05;;;16.70;79.90;;;;;;4230172;27;20094;-74
2021/10/18 01:15:51;;;;;;;8.45;5.90;;;16.70;79.90;;;;;;4247314;27;20059;-75
2021/10/18 01:17:55;;;;;;;7.78;5.63;;;16.70;79.90;;;;;;4229264;28;20051;-74
2021/10/18 01:20:08;;;;;;;10.18;6.35;;;16.70;79.90;;;;;;4247862;27;20051;-72
2021/10/18 01:22:12;;;;;;;9.23;6.32;;;16.70;79.90;;;;;;4247753;27;20047;-75
2021/10/18 01:24:20;;;;;;;8.38;5.65;;;16.70;79.90;;;;;;4247564;27;20054;-74
2021/10/18 01:26:23;;;;;;;7.10;5.55;;;16.70;79.90;;;;;;4247927;27;20039;-74
2021/10/18 01:28:31;;;;;;;8.35;6.18;;;16.70;79.90;;;;;;4247487;27;20043;-74
2021/10/18 01:30:39;;;;;;;8.63;5.78;;;16.70;80.50;;;;;;4247502;27;20083;-71
2021/10/18 01:32:43;;;;;;;7.72;5.75;;;16.70;79.90;;;;;;4248660;27;20050;-74
2021/10/18 01:34:51;;;;;;;6.90;5.80;;;16.70;80.50;;;;;;4249366;27;20059;-75
2021/10/18 01:37:00;;;;;;;8.00;5.85;;;16.70;79.90;;;;;;4249619;27;20054;-75
2021/10/18 01:39:10;;;;;;;7.43;5.72;;;16.70;79.90;;;;;;4247086;27;20105;-72
2021/10/18 01:41:13;;;;;;;7.43;5.72;;;16.70;79.90;;;;;;4247384;27;20055;-73
2021/10/18 01:43:16;;;;;;;9.85;6.63;;;16.70;80.00;;;;;;4247237;27;20046;-74
2021/10/18 01:45:24;;;;;;;8.60;5.93;;;16.70;79.90;;;;;;4247180;27;20081;-72
2021/10/18 01:47:32;;;;;;;8.98;6.20;;;16.70;80.00;;;;;;4247177;27;20051;-74
2021/10/18 01:49:39;;;;;;;7.85;5.72;;;16.70;79.90;;;;;;4247018;27;20051;-75
2021/10/18 01:51:42;;;;;;;9.30;5.90;;;16.70;79.90;;;;;;4247197;27;20108;-74
2021/10/18 01:53:50;;;;;;;10.82;6.00;;;16.70;79.90;;;;;;4246893;27;20043;-75
2021/10/18 01:55:55;;;;;;;7.63;5.90;;;16.70;79.90;;;;;;4247296;27;20532;-75
2021/10/18 01:58:03;;;;;;;8.18;5.70;;;16.60;79.90;;;;;;4229631;27;20422;-75
2021/10/18 02:00:07;;;;;;;10.20;6.47;;;16.60;79.90;;;;;;4246768;27;20431;-74
2021/10/18 02:02:10;;;;;;;9.20;5.70;;;16.70;79.90;;;;;;4235842;27;20060;-75
2021/10/18 02:04:29;;;;;;;9.07;6.60;;;16.60;79.80;;;;;;4246540;27;20058;-72
2021/10/18 02:06:33;;;;;;;8.20;6.28;;;16.70;79.90;;;;;;4246618;27;20058;-72
2021/10/18 02:08:40;;;;;;;6.82;5.68;;;16.60;79.80;;;;;;4229434;27;20655;-74
2021/10/18 02:10:44;;;;;;;7.90;6.15;;;16.60;79.80;;;;;;4228443;28;20051;-73
2021/10/18 02:12:53;;;;;;;9.27;6.70;;;16.60;79.80;;;;;;4247024;27;20051;-73
2021/10/18 02:15:01;;;;;;;7.80;6.40;;;16.60;79.80;;;;;;4246589;27;20606;-73
2021/10/18 02:17:04;;;;;;;7.65;6.22;;;16.60;79.80;;;;;;4229036;28;20063;-72
2021/10/18 02:19:12;;;;;;;8.35;6.10;;;16.60;79.80;;;;;;4230372;27;20428;-72
2021/10/18 02:21:15;;;;;;;7.35;6.00;;;16.60;79.80;;;;;;4249279;27;20088;-73
2021/10/18 02:23:22;;;;;;;8.85;6.30;;;16.60;79.90;;;;;;4248548;27;20501;-76
2021/10/18 02:25:30;;;;;;;9.50;6.65;;;16.60;79.80;;;;;;4228159;28;20047;-75
2021/10/18 02:27:38;;;;;;;8.68;5.90;;;16.60;79.90;;;;;;4246385;27;20059;-74
2021/10/18 02:29:43;;;;;;;7.63;6.07;;;16.60;79.80;;;;;;4246874;27;20054;-75
2021/10/18 02:31:46;;;;;;;7.70;5.60;;;16.60;80.50;;;;;;4246572;27;20048;-74
2021/10/18 02:33:54;;;;;;;7.90;6.22;;;16.60;79.80;;;;;;4228829;27;20067;-72
2021/10/18 02:36:02;;;;;;;9.10;6.88;;;16.60;79.80;;;;;;4245815;27;20055;-73
2021/10/18 02:38:05;;;;;;;9.02;6.55;;;16.60;79.80;;;;;;4246847;27;20047;-74
2021/10/18 02:40:10;;;;;;;8.20;5.78;;;16.60;79.90;;;;;;4245875;27;20058;-73
2021/10/18 02:42:13;;;;;;;10.38;6.07;;;16.60;79.90;;;;;;4235786;27;20054;-75
2021/10/18 02:44:16;;;;;;;8.32;6.22;;;16.60;79.80;;;;;;4246403;27;20127;-73
2021/10/18 02:46:25;;;;;;;7.70;5.60;;;16.60;79.80;;;;;;4246272;27;20058;-74
2021/10/18 02:48:33;;;;;;;7.03;5.55;;;16.60;79.90;;;;;;4229406;27;20597;-75
2021/10/18 02:50:41;;;;;;;9.65;6.20;;;16.60;79.80;;;;;;4246120;27;20119;-71
2021/10/18 02:52:44;;;;;;;6.97;5.70;;;16.60;79.90;;;;;;4228418;28;20044;-75
2021/10/18 02:54:47;;;;;;;7.57;5.60;;;16.60;79.90;;;;;;4246392;27;20059;-73
2021/10/18 02:56:50;;;;;;;8.07;6.25;;;16.60;79.90;;;;;;4228024;28;20054;-73
2021/10/18 02:58:53;;;;;;;7.95;6.30;;;16.50;79.80;;;;;;4246719;27;20073;-73
2021/10/18 03:00:56;;;;;;;10.35;6.72;;;16.50;79.80;;;;;;4228197;28;20057;-71
2021/10/18 03:03:07;;;;;;;8.40;6.35;;;16.50;79.80;;;;;;4246213;27;20047;-72
2021/10/18 03:05:10;;;;;;;9.02;6.60;;;16.50;79.80;;;;;;4229401;28;20054;-74
2021/10/18 03:07:13;;;;;;;8.60;6.30;;;16.60;79.90;;;;;;4229810;28;20459;-74
2021/10/18 03:09:16;;;;;;;9.90;6.30;;;16.50;79.80;;;;;;4249036;27;20105;-73
2021/10/18 03:11:24;;;;;;;9.73;6.50;;;16.50;79.80;;;;;;4246532;28;20104;-75
2021/10/18 03:13:31;;;;;;;8.93;6.00;;;16.50;79.80;;;;;;4246178;27;20055;-74
2021/10/18 03:15:39;;;;;;;8.98;6.25;;;16.50;79.80;;;;;;4246341;27;20043;-72
2021/10/18 03:17:43;;;;;;;7.65;5.85;;;16.50;79.80;;;;;;4245198;28;20520;-73
2021/10/18 03:19:47;;;;;;;8.15;6.07;;;16.50;79.80;;;;;;4246119;28;20520;-74
2021/10/18 03:21:50;;;;;;;7.65;5.75;;;16.50;79.80;;;;;;4245744;28;20050;-72
2021/10/18 03:23:53;;;;;;;10.05;6.30;;;16.50;79.80;;;;;;4248002;27;20059;-72
2021/10/18 03:25:56;;;;;;;8.85;6.13;;;16.50;79.80;;;;;;4231738;28;20442;-74
2021/10/18 03:28:05;;;;;;;8.82;6.53;;;16.50;79.80;;;;;;4248953;27;20047;-73
2021/10/18 03:30:13;;;;;;;9.95;5.68;;;16.50;79.80;;;;;;4249647;27;20055;-74
2021/10/18 03:32:16;;;;;;;7.05;5.90;;;16.50;79.80;;;;;;4249365;27;20039;-74
2021/10/18 03:34:24;;;;;;;8.35;6.13;;;16.50;79.90;;;;;;4249179;27;20059;-72
2021/10/18 03:36:34;;;;;;;6.28;5.60;;;16.50;79.80;;;;;;4249373;27;20077;-75
2021/10/18 03:38:41;;;;;;;8.15;5.85;;;16.50;79.90;;;;;;4231306;28;20051;-75
2021/10/18 03:40:45;;;;;;;8.48;6.07;;;16.50;79.90;;;;;;4249046;27;20530;-76
2021/10/18 03:42:53;;;;;;;6.65;5.65;;;16.50;79.90;;;;;;4249150;27;20047;-72
2021/10/18 03:45:00;;;;;;;10.30;5.78;;;16.50;79.90;;;;;;4231828;27;20110;-73
2021/10/18 03:47:03;;;;;;;8.13;5.63;;;16.50;79.90;;;;;;4230878;28;20468;-76
2021/10/18 03:49:11;;;;;;;9.60;5.93;;;16.50;80.00;;;;;;4249181;27;20051;-72
2021/10/18 03:51:19;;;;;;;9.18;5.78;;;16.50;79.90;;;;;;4249639;27;20063;-72
2021/10/18 03:53:24;;;;;;;8.63;5.93;;;16.50;80.00;;;;;;4251518;27;20108;-74
2021/10/18 03:55:32;;;;;;;8.82;5.93;;;16.50;80.00;;;;;;4251136;27;20550;-75
2021/10/18 03:57:35;;;;;;;8.43;5.88;;;16.50;80.00;;;;;;4249488;27;20112;-75
2021/10/18 03:59:43;;;;;;;6.78;5.43;;;16.50;80.00;;;;;;4249131;27;20423;-74
2021/10/18 04:01:52;;;;;;;8.48;5.80;;;16.50;80.00;;;;;;4249076;27;20415;-76
2021/10/18 04:04:00;;;;;;;8.60;5.78;;;16.50;80.00;;;;;;4248482;27;20519;-73
2021/10/18 04:06:03;;;;;;;6.78;5.57;;;16.50;80.00;;;;;;4248573;27;20044;-72
2021/10/18 04:08:06;;;;;;;8.05;5.78;;;16.50;80.00;;;;;;4248828;27;20068;-74
2021/10/18 04:10:19;;;;;;;6.78;5.22;;;16.50;80.00;;;;;;4248837;27;20514;-75
2021/10/18 04:12:27;;;;;;;8.00;5.65;;;16.50;80.10;;;;;;4248844;27;20100;-74
2021/10/18 04:14:30;;;;;;;8.10;5.78;;;16.50;80.00;;;;;;4230414;28;20056;-74
2021/10/18 04:16:33;;;;;;;7.63;5.32;;;16.40;80.00;;;;;;4248797;27;20062;-75
2021/10/18 04:18:41;;;;;;;8.82;5.10;;;16.40;80.00;;;;;;4214045;28;20105;-72
2021/10/18 04:20:49;;;;;;;7.10;5.47;;;16.50;80.00;;;;;;4248638;27;20423;-75
2021/10/18 04:22:57;;;;;;;7.43;5.47;;;16.40;80.00;;;;;;4248488;27;20088;-72
2021/10/18 04:25:00;;;;;;;7.68;5.13;;;16.40;80.00;;;;;;4247027;27;20047;-73
2021/10/18 04:27:04;;;;;;;6.95;5.10;;;16.50;80.10;;;;;;4230321;27;20445;-72
2021/10/18 04:29:13;;;;;;;8.07;5.68;;;16.50;80.10;;;;;;4248406;27;20088;-75
2021/10/18 04:31:20;;;;;;;7.15;5.28;;;16.40;80.00;;;;;;4248613;27;20600;-74
2021/10/18 04:33:28;;;;;;;7.65;5.53;;;16.40;80.10;;;;;;4230412;28;20491;-75
2021/10/18 04:35:36;;;;;;;9.32;5.63;;;16.40;80.00;;;;;;4230439;27;20055;-74
2021/10/18 04:37:44;;;;;;;9.05;5.20;;;16.40;80.00;;;;;;4248764;27;20066;-74
2021/10/18 04:39:47;;;;;;;6.93;5.03;;;16.40;80.10;;;;;;4250737;27;20035;-75
2021/10/18 04:41:50;;;;;;;6.57;4.80;;;16.40;80.00;;;;;;4250604;27;20640;-74
2021/10/18 04:43:55;;;;;;;10.73;6.38;;;16.40;80.00;;;;;;4230456;28;20060;-72
2021/10/18 04:45:57;;;;;;;6.55;5.55;;;16.40;80.00;;;;;;4230337;28;20256;-73
2021/10/18 04:48:01;;;;;;;10.75;5.88;;;16.40;80.00;;;;;;4230230;27;20042;-75
2021/10/18 04:50:05;;;;;;;8.13;5.18;;;16.40;80.10;;;;;;4248154;27;20046;-75
2021/10/18 04:52:12;;;;;;;7.18;5.10;;;16.40;80.10;;;;;;4214186;28;20044;-72
2021/10/18 04:54:15;;;;;;;8.23;5.38;;;16.40;80.00;;;;;;4248123;27;20058;-73
2021/10/18 04:56:23;;;;;;;10.15;5.60;;;16.40;80.00;;;;;;4230649;28;20053;-74
2021/10/18 04:58:26;;;;;;;9.27;5.80;;;16.40;80.00;;;;;;4248163;27;20047;-74
2021/10/18 05:00:36;;;;;;;8.40;5.55;;;16.40;80.00;;;;;;4229559;28;20052;-73
2021/10/18 05:02:43;;;;;;;7.53;5.60;;;16.40;80.10;;;;;;4247844;27;20052;-73
2021/10/18 05:04:51;;;;;;;6.97;5.03;;;16.40;80.10;;;;;;4247598;27;20078;-74
2021/10/18 05:06:54;;;;;;;7.47;5.55;;;16.40;80.10;;;;;;4229411;27;20062;-75
2021/10/18 05:09:03;;;;;;;7.22;5.20;;;16.40;80.10;;;;;;4247801;27;20067;-74
2021/10/18 05:11:06;;;;;;;8.93;6.25;;;16.40;80.10;;;;;;4247616;27;20627;-73
2021/10/18 05:13:17;;;;;;;7.05;5.25;;;16.40;80.00;;;;;;4247663;27;20051;-73
2021/10/18 05:15:21;;;;;;;7.07;5.20;;;16.40;80.10;;;;;;4247384;27;20116;-74
2021/10/18 05:17:30;;;;;;;6.22;5.03;;;16.40;80.10;;;;;;4230584;27;20551;-73
2021/10/18 05:19:33;;;;;;;7.50;5.25;;;16.40;80.10;;;;;;4247756;27;20051;-73
2021/10/18 05:21:41;;;;;;;8.15;5.13;;;16.40;80.20;;;;;;4247807;27;20512;-74
2021/10/18 05:23:44;;;;;;;6.30;5.32;;;16.40;80.10;;;;;;4248423;27;20460;-73
2021/10/18 05:25:47;;;;;;;8.70;4.93;;;16.40;80.10;;;;;;4249660;27;20055;-74
2021/10/18 05:27:50;;;;;;;7.07;5.35;;;16.40;80.10;;;;;;4250008;27;20051;-74
2021/10/18 05:29:58;;;;;;;6.45;5.32;;;16.40;80.10;;;;;;4248605;27;20447;-73
2021/10/18 05:32:01;;;;;;;8.60;4.95;;;16.40;80.10;;;;;;4247400;27;20043;-75
2021/10/18 05:34:05;;;;;;;6.80;5.30;;;16.40;80.20;;;;;;4247344;27;20495;-72
2021/10/18 05:36:08;;;;;;;7.20;5.45;;;16.40;80.20;;;;;;4229032;28;20067;-74
2021/10/18 05:38:11;;;;;;;9.73;5.82;;;16.30;80.10;;;;;;4229592;27;20039;-74
2021/10/18 05:40:16;;;;;;;6.05;5.18;;;16.30;80.10;;;;;;4247515;27;20062;-73
2021/10/18 05:42:19;;;;;;;6.88;5.35;;;16.40;80.20;;;;;;4247171;27;20107;-72
2021/10/18 05:44:23;;;;;;;6.90;5.00;;;16.30;80.10;;;;;;4229283;28;20051;-73
2021/10/18 05:46:31;;;;;;;9.25;5.45;;;16.30;80.20;;;;;;4246345;27;20051;-73
2021/10/18 05:48:36;;;;;;;8.98;5.43;;;16.30;80.20;;;;;;4247452;27;20384;-73
2021/10/18 05:50:44;;;;;;;7.38;4.97;;;16.30;80.20;;;;;;4229512;28;20091;-73
2021/10/18 05:52:52;;;;;;;6.90;5.25;;;16.30;80.20;;;;;;4247137;27;20043;-75
2021/10/18 05:55:00;;;;;;;7.10;4.97;;;16.30;80.20;;;;;;4230502;28;20496;-74
2021/10/18 05:57:03;;;;;;;7.43;5.28;;;16.30;80.20;;;;;;4228684;28;20100;-74
2021/10/18 05:59:11;;;;;;;6.97;5.15;;;16.30;80.20;;;;;;4247588;27;20051;-72
2021/10/18 06:01:14;;;;;;;8.90;5.93;;;16.30;80.20;;;;;;4247346;27;20423;-71
2021/10/18 06:03:17;;;;;;;8.93;5.68;;;16.30;80.20;;;;;;4246000;27;20117;-73
2021/10/18 06:05:24;;;;;;;7.63;5.50;;;16.30;80.20;;;;;;4247049;27;20051;-74
2021/10/18 06:07:33;;;;;;;8.25;5.50;;;16.30;80.30;;;;;;4247096;27;20080;-71
2021/10/18 06:09:36;;;;;;;8.13;5.70;;;16.30;80.20;;;;;;4246915;27;20453;-74
2021/10/18 06:11:45;;;;;;;7.03;5.68;;;16.30;80.20;;;;;;4231408;27;20047;-75
2021/10/18 06:13:53;;;;;;;6.75;5.65;;;16.30;80.30;;;;;;4247378;27;20051;-75
2021/10/18 06:15:56;;;;;;;10.82;5.90;;;16.30;80.30;;;;;;4229352;28;20481;-75
2021/10/18 06:18:12;;;;;;;8.48;5.82;;;16.30;80.30;;;;;;4229288;27;20044;-73
2021/10/18 06:20:20;;;;;;;5.57;4.97;;;16.30;80.30;;;;;;4229562;27;20055;-73
2021/10/18 06:22:28;;;;;;;8.30;5.65;;;16.30;80.40;;;;;;4246858;27;20039;-75
2021/10/18 06:24:33;;;;;;;7.78;5.75;;;16.30;80.30;;;;;;4246387;27;20051;-74
2021/10/18 06:26:36;;;;;;;7.07;5.32;;;16.30;80.40;;;;;;4247072;27;20046;-75
2021/10/18 06:28:39;;;;;;;6.47;5.05;;;16.30;80.40;;;;;;4246897;27;20043;-74
2021/10/18 06:30:42;;;;;;;7.68;5.47;;;16.30;80.30;;;;;;4246892;27;20092;-74
2021/10/18 06:32:45;;;;;;;9.10;5.53;;;16.30;80.40;;;;;;4246719;27;20039;-74
2021/10/18 06:34:53;;;;;;;7.75;5.85;;;16.30;80.50;;;;;;4246409;27;20047;-73
2021/10/18 06:36:56;;;;;;;7.75;5.80;;;16.30;80.40;;;;;;4228590;28;20089;-76
2021/10/18 06:39:04;;;;;;;7.38;5.53;;;16.30;80.40;;;;;;4246384;27;20124;-73
2021/10/18 06:41:08;;;;;;;8.23;5.70;;;16.30;80.40;;;;;;4228356;28;20055;-73
2021/10/18 06:43:11;;;;;;;8.48;5.68;;;16.30;80.40;;;;;;4246784;27;20514;-75
2021/10/18 06:45:15;;;;;;;7.93;5.40;;;16.30;80.40;;;;;;4216829;28;20048;-75
2021/10/18 06:47:22;;;;;;;7.25;5.60;;;16.30;80.40;;;;;;4229312;27;20407;-74
2021/10/18 06:49:30;;;;;;;7.82;5.47;;;16.30;80.40;;;;;;4229204;27;20112;-74
2021/10/18 06:51:37;;;;;;;7.22;5.03;;;16.30;80.50;;;;;;4247051;27;20403;-74
2021/10/18 06:53:40;;;;;;;6.82;5.20;;;16.30;80.50;;;;;;4246332;27;20112;-73
2021/10/18 06:55:45;;;;;;;8.20;5.47;;;16.30;80.50;;;;;;4246966;27;20043;-74
2021/10/18 06:57:55;;;;;;;10.55;5.72;;;16.30;80.50;;;;;;4247803;27;20051;-72
2021/10/18 07:00:05;;;;;;;6.80;5.28;;;16.30;80.50;;;;;;4230490;27;20102;-73
2021/10/18 07:02:08;;;;;;;8.10;5.75;;;16.30;80.50;;;;;;4217639;28;20044;-72
2021/10/18 07:04:12;;;;;;;7.25;5.50;;;16.30;80.50;;;;;;4246284;27;20051;-73
2021/10/18 07:06:15;;;;;;;5.90;4.07;;;16.30;80.50;;;;;;4246349;27;20039;-72
2021/10/18 07:08:23;;;;;;;7.28;5.45;;;16.30;80.50;;;;;;4246281;27;20051;-75
2021/10/18 07:10:31;;;;;;;7.63;5.80;;;16.30;80.50;;;;;;4246311;27;20103;-73
2021/10/18 07:12:35;;;;;;;11.20;6.13;;;16.30;80.60;;;;;;4246573;27;20062;-73
2021/10/18 07:14:45;;;;;;;8.55;6.00;;;16.30;80.60;;;;;;4246288;27;20043;-74
2021/10/18 07:16:52;;;;;;;9.15;6.32;;;16.30;80.50;;;;;;4245714;27;20053;-72
2021/10/18 07:18:55;;;;;;;9.35;5.63;;;16.30;80.60;;;;;;4227848;28;20055;-73
2021/10/18 07:21:03;;;;;;;8.00;5.22;;;16.30;80.60;;;;;;4242541;28;20080;-73
2021/10/18 07:23:12;;;;;;;7.35;5.20;;;16.30;80.60;;;;;;4245904;28;20055;-73
2021/10/18 07:25:17;;;;;;;7.10;5.63;;;16.30;80.60;;;;;;4245760;28;20047;-73
2021/10/18 07:27:20;;;;;;;;;;;16.30;80.60;;;;;;4246509;28;20109;-71
2021/10/18 07:29:23;;;;;;;8.23;5.63;;;16.30;80.60;;;;;;4246229;28;19946;-72
2021/10/18 07:31:32;;;;;;;7.78;5.03;;;16.30;80.60;;;;;;4246879;28;20043;-73
2021/10/18 07:33:35;;;;;;;5.88;4.70;;;16.30;80.60;;;;;;4246932;28;20047;-72
2021/10/18 07:35:43;;;;;;;8.05;5.05;;;16.30;80.70;;;;;;4223870;28;20048;-72
2021/10/18 07:37:54;;;;;;;6.55;5.10;;;16.30;80.70;;;;;;4246264;28;20051;-71
2021/10/18 07:40:03;;;;;;;9.93;5.45;;;16.30;80.60;;;;;;4246298;28;20043;-73
2021/10/18 07:42:14;;;;;;;8.90;5.50;;;16.30;80.70;;;;;;4237151;28;20107;-74
2021/10/18 07:44:26;;;;;;;6.95;5.38;;;16.30;80.70;;;;;;4248208;28;20055;-73
2021/10/18 07:46:28;;;;;;;8.02;5.20;;;16.30;80.70;;;;;;4247072;28;20050;-73
2021/10/18 07:48:33;;;;;;;8.68;4.70;;;16.30;80.60;;;;;;4245513;28;20062;-74
2021/10/18 07:50:41;;;;;;;6.88;4.93;;;16.30;80.60;;;;;;4228497;28;20293;-71
2021/10/18 07:52:45;;;;;;;10.55;5.25;;;16.30;80.60;;;;;;4245458;28;20052;-74
2021/10/18 07:55:00;;;;;;;7.72;5.15;;;16.30;80.60;;;;;;4228547;28;20537;-74
2021/10/18 07:57:04;;;;;;;10.48;5.28;;;16.30;80.70;;;;;;4244216;28;20051;-73
2021/10/18 07:59:12;;;;;;;8.38;5.47;;;16.30;80.70;;;;;;4245878;28;20058;-72
2021/10/18 08:01:15;;;;;;;6.97;4.82;;;16.40;80.80;;;;;;4245604;28;20047;-73
2021/10/18 08:03:23;;;;;;;7.07;5.05;;;16.30;80.60;;;;;;4245448;28;20074;-71
2021/10/18 08:05:32;;;;;;;5.57;4.47;;;16.40;81.00;;;;;;4245371;28;20570;-74
2021/10/18 08:07:41;;;;;;;6.57;4.65;;;16.40;81.10;;;;;;4243457;28;20480;-73
2021/10/18 08:09:48;;;;;;;7.93;5.07;;;16.40;81.10;;;;;;4247409;27;20460;-73
2021/10/18 08:11:52;;;;;;;6.82;4.65;;;16.40;81.00;;;;;;4248677;27;20399;-72
2021/10/18 08:13:55;;;;;;;5.72;4.55;;;16.40;81.10;;;;;;4248572;27;20051;-74
2021/10/18 08:16:03;;;;;;;5.90;4.63;;;16.40;81.00;;;;;;4231416;27;20052;-74
2021/10/18 08:18:10;;;;;;;8.18;5.40;;;16.50;81.00;;;;;;4248618;27;20059;-73
2021/10/18 08:20:13;;;;;;;7.00;4.40;;;16.50;81.00;;;;;;4248971;27;20051;-73
2021/10/18 08:22:23;;;;;;;6.70;4.93;;;16.50;81.00;;;;;;4248699;27;20116;-71
2021/10/18 08:24:30;;;;;;;7.00;4.53;;;16.50;81.10;;;;;;4248642;27;20051;-72
2021/10/18 08:26:38;;;;;;;7.47;4.80;;;16.40;81.00;;;;;;4249494;27;20047;-72
2021/10/18 08:28:41;;;;;;;9.55;4.97;;;16.50;81.20;;;;;;4239187;27;20092;-74
2021/10/18 08:30:47;;;;;;;7.25;4.82;;;16.50;81.00;;;;;;4250269;27;20055;-74
2021/10/18 08:32:50;;;;;;;6.93;4.65;;;16.50;81.10;;;;;;4249356;27;20452;-73
2021/10/18 08:34:53;;;;;;;5.72;4.90;;;16.50;81.60;;;;;;4248526;27;20061;-73
2021/10/18 08:36:56;;;;;;;6.43;4.90;;;16.50;81.00;;;;;;4230241;28;20039;-72
2021/10/18 08:41:25;;;;;;;7.20;5.13;;;16.60;80.90;;;;;;4248611;27;20058;-74
2021/10/18 08:45:46;;;;;;;5.82;4.72;;;16.50;80.90;;;;;;4231996;28;20373;-73
2021/10/18 08:47:55;;;;;;;7.13;4.65;;;16.50;80.80;;;;;;4241263;27;20051;-74
2021/10/18 08:50:05;;;;;;;8.10;4.90;;;16.60;80.90;;;;;;4247902;27;20047;-72
2021/10/18 08:52:14;;;;;;;7.20;4.88;;;16.60;80.90;;;;;;4247697;27;20183;-74
2021/10/18 08:54:19;;;;;;;6.75;5.00;;;16.60;80.80;;;;;;4247857;27;20058;-72
2021/10/18 08:56:28;;;;;;;6.03;4.22;;;16.60;80.80;;;;;;4248424;27;20105;-74
2021/10/18 08:58:31;;;;;;;7.65;4.80;;;16.60;80.80;;;;;;4230411;28;20039;-73
2021/10/18 09:00:41;;;;;;;7.32;5.05;;;16.60;81.00;;;;;;4248357;27;20107;-75
2021/10/18 09:02:44;;;;;;;7.13;4.30;;;16.60;81.00;;;;;;4248031;27;20061;-74
2021/10/18 09:04:47;;;;;;;8.82;5.05;;;16.60;80.90;;;;;;4248153;27;20044;-73
2021/10/18 09:06:57;;;;;;;8.52;5.18;;;16.60;81.00;;;;;;4230870;27;20112;-74
2021/10/18 09:09:03;;;;;;;8.82;5.45;;;16.60;81.00;;;;;;4229937;28;20137;-73
2021/10/18 09:11:15;;;;;;;8.15;5.25;;;16.70;81.20;;;;;;4248247;27;20059;-74
2021/10/18 09:13:23;;;;;;;8.13;5.68;;;16.70;81.30;;;;;;4248840;27;20096;-72
2021/10/18 09:15:26;;;;;;;9.55;5.88;;;16.70;81.40;;;;;;4250332;27;20047;-71
2021/10/18 09:17:31;;;;;;;7.93;5.97;;;16.80;81.70;;;;;;4250856;27;20544;-74
2021/10/18 09:19:34;;;;;;;7.80;5.43;;;16.80;81.70;;;;;;4231347;28;20052;-74
2021/10/18 09:21:38;;;;;;;9.88;6.30;;;16.90;81.70;;;;;;4248918;27;20088;-73
2021/10/18 09:23:41;;;;;;;7.63;5.68;;;16.90;81.80;;;;;;4248789;27;20055;-74
2021/10/18 09:25:44;;;;;;;8.77;5.32;;;17.00;81.70;;;;;;4247579;27;20047;-75
2021/10/18 09:28:07;;;;;;;11.02;5.65;;;17.10;81.60;;;;;;4247610;27;20051;-74
2021/10/18 09:30:10;;;;;;;7.18;5.60;;;17.10;81.50;;;;;;4246372;27;20126;-73
2021/10/18 09:32:18;;;;;;;9.32;5.85;;;17.30;81.50;;;;;;4229368;28;20055;-71
2021/10/18 09:34:21;;;;;;;7.55;5.00;;;17.30;81.40;;;;;;4228966;28;20507;-73
2021/10/18 09:36:29;;;;;;;6.35;5.07;;;17.40;81.10;;;;;;4247400;27;20047;-73
2021/10/18 09:38:32;;;;;;;8.43;5.32;;;17.50;81.10;;;;;;4247105;27;20112;-74
2021/10/18 09:40:39;;;;;;;7.70;5.40;;;17.60;81.00;;;;;;4247039;27;20403;-73
2021/10/18 09:42:58;;;;;;;7.47;5.90;;;17.70;80.80;;;;;;4247497;27;20054;-74
2021/10/18 09:47:38;;;;;;;9.90;5.82;;;17.90;80.50;;;;;;4247503;27;20129;-71
2021/10/18 10:52:58;;;;;;;;;;;20.60;76.70;;;;;;4245813;27;20051;-74
2021/10/18 10:55:18;;;;;;;10.82;6.53;;;20.60;76.50;;;;;;4246138;27;19923;-74
2021/10/18 10:57:31;;;;;;;9.82;6.57;;;20.70;76.40;;;;;;4245838;27;20062;-74
2021/10/18 10:59:34;;;;;;;13.27;6.68;;;20.90;76.50;;;;;;4245977;27;20047;-72
2021/10/18 11:02:00;;;;;;;8.32;6.45;;;20.90;76.10;;;;;;4245829;27;20043;-73
2021/10/18 11:04:26;;;;;;;8.95;6.55;;;21.00;76.00;;;;;;4236316;27;20043;-73
2021/10/18 11:06:45;;;;;;;11.40;6.85;;;21.10;75.90;;;;;;4244866;27;20051;-74
2021/10/18 11:08:48;;;;;;;11.38;6.43;;;21.20;75.70;;;;;;4244081;27;20066;-74
2021/10/18 11:10:52;;;;;;;11.68;6.50;;;21.30;75.10;;;;;;4245766;27;20047;-74
2021/10/18 11:13:07;;;;;;;9.82;6.50;;;21.40;75.30;;;;;;4245332;27;20051;-78
2021/10/18 11:15:16;;;;;;;9.35;6.43;;;21.50;75.30;;;;;;4245916;27;20099;-75
2021/10/18 11:17:27;;;;;;;11.05;6.60;;;21.60;75.00;;;;;;4245496;27;20047;-72
2021/10/18 11:19:31;;;;;;;9.95;6.65;;;21.70;75.00;;;;;;4245573;27;20055;-74
2021/10/18 11:21:35;;;;;;;12.40;6.40;;;21.70;74.70;;;;;;4245961;28;20566;-73
2021/10/18 11:23:57;;;;;;;11.75;6.55;;;21.80;74.70;;;;;;4228005;28;20078;-72
2021/10/18 11:26:00;;;;;;;9.48;6.47;;;21.90;74.70;;;;;;4229010;28;20434;-72
2021/10/18 11:28:09;;;;;;;9.35;6.07;;;22.00;74.40;;;;;;4220009;28;20067;-74
2021/10/18 11:30:14;;;;;;;10.75;6.43;;;22.00;74.40;;;;;;4245563;28;20055;-73
2021/10/18 11:32:23;;;;;;;9.55;5.80;;;22.10;74.30;;;;;;4245441;28;20059;-75
2021/10/18 11:34:33;;;;;;;9.55;5.97;;;22.20;74.40;;;;;;4242474;28;20055;-74
2021/10/18 11:36:43;;;;;;;12.20;6.10;;;22.30;74.10;;;;;;4245588;28;20434;-75
2021/10/18 11:39:06;;;;;;;9.52;6.18;;;22.40;74.00;;;;;;4227764;28;20054;-72
2021/10/18 11:41:09;;;;;;;10.45;5.82;;;22.40;74.00;;;;;;4245337;28;20047;-76
2021/10/18 11:43:13;;;;;;;12.40;6.70;;;22.50;74.00;;;;;;4245254;28;20051;-75
2021/10/18 11:45:23;;;;;;;9.30;6.45;;;22.50;73.80;;;;;;4237511;27;20059;-72
2021/10/18 11:47:31;;;;;;;14.07;6.15;;;22.60;73.50;;;;;;4231065;28;20098;-73
2021/10/18 11:49:36;;;;;;;8.88;6.35;;;22.70;73.60;;;;;;4248489;27;20058;-74
2021/10/18 11:51:43;;;;;;;13.25;6.28;;;22.80;73.30;;;;;;4248792;27;20051;-78
2021/10/18 11:53:54;;;;;;;11.82;6.13;;;22.80;73.40;;;;;;4248676;27;20062;-71
2021/10/18 11:56:03;;;;;;;11.18;6.72;;;22.90;73.40;;;;;;4248857;27;20047;-77
2021/10/18 11:58:11;;;;;;;12.02;5.90;;;22.90;73.40;;;;;;4248426;27;20710;-73
2021/10/18 12:00:20;;;;;;;10.60;6.30;;;23.00;73.30;;;;;;4248717;27;20047;-76
2021/10/18 12:02:24;;;;;;;10.80;6.45;;;23.00;73.30;;;;;;4248654;27;20108;-74
2021/10/18 12:04:54;;;;;;;8.30;5.40;;;23.10;73.20;;;;;;4247893;27;20070;-72
2021/10/18 12:06:57;;;;;;;7.50;5.85;;;23.20;73.10;;;;;;4245589;27;20051;-73